sensor_id;sensor_type;location;lat;lon;timestamp;P1;durP1;ratioP1;P2;durP2;ratioP2
23866;SDS011;12114;53.404;-1.502;2023-02-28T00:01:24;8.10;;;6.13;;
23866;SDS011;12114;53.404;-1.502;2023-02-28T00:03:50;10.52;;;6.63;;
23866;SDS011;12114;53.404;-1.502;2023-02-28T00:06:15;14.05;;;7.38;;
23866;SDS011;12114;53.404;-1.502;2023-02-28T00:08:40;10.30;;;7.38;;
23866;SDS011;12114;53.404;-1.502;2023-02-28T00:11:07;11.52;;;7.47;;
23866;SDS011;12114;53.404;-1.502;2023-02-28T00:13:33;12.65;;;8.60;;
23866;SDS011;12114;53.404;-1.502;2023-02-28T00:16:02;12.68;;;10.15;;
23866;SDS011;12114;53.404;-1.502;2023-02-28T00:18:28;14.57;;;11.18;;
23866;SDS011;12114;53.404;-1.502;2023-02-28T00:20:53;17.98;;;13.38;;
23866;SDS011;12114;53.404;-1.502;2023-02-28T00:23:18;22.00;;;13.27;;
23866;SDS011;12114;53.404;-1.502;2023-02-28T00:25:44;21.80;;;13.82;;
23866;SDS011;12114;53.404;-1.502;2023-02-28T00:28:09;22.35;;;15.20;;
23866;SDS011;12114;53.404;-1.502;2023-02-28T00:30:34;24.65;;;17.20;;
23866;SDS011;12114;53.404;-1.502;2023-02-28T00:33:00;24.42;;;17.85;;
23866;SDS011;12114;53.404;-1.502;2023-02-28T00:35:25;27.52;;;18.48;;
23866;SDS011;12114;53.404;-1.502;2023-02-28T00:37:50;33.08;;;21.05;;
23866;SDS011;12114;53.404;-1.502;2023-02-28T00:40:16;30.35;;;19.38;;
23866;SDS011;12114;53.404;-1.502;2023-02-28T00:42:41;27.13;;;19.50;;
23866;SDS011;12114;53.404;-1.502;2023-02-28T00:45:07;24.65;;;17.60;;
23866;SDS011;12114;53.404;-1.502;2023-02-28T00:47:33;19.85;;;14.93;;
23866;SDS011;12114;53.404;-1.502;2023-02-28T00:49:58;19.35;;;12.35;;
23866;SDS011;12114;53.404;-1.502;2023-02-28T00:52:23;15.70;;;11.05;;
23866;SDS011;12114;53.404;-1.502;2023-02-28T00:54:49;14.82;;;9.68;;
23866;SDS011;12114;53.404;-1.502;2023-02-28T00:57:14;13.43;;;9.38;;
23866;SDS011;12114;53.404;-1.502;2023-02-28T00:59:40;11.52;;;8.75;;
23866;SDS011;12114;53.404;-1.502;2023-02-28T01:02:05;12.52;;;8.60;;
23866;SDS011;12114;53.404;-1.502;2023-02-28T01:04:30;16.15;;;9.27;;
23866;SDS011;12114;53.404;-1.502;2023-02-28T01:06:56;13.00;;;9.25;;
23866;SDS011;12114;53.404;-1.502;2023-02-28T01:09:21;11.02;;;7.93;;
23866;SDS011;12114;53.404;-1.502;2023-02-28T01:11:46;10.93;;;7.85;;
23866;SDS011;12114;53.404;-1.502;2023-02-28T01:14:15;15.48;;;9.32;;
23866;SDS011;12114;53.404;-1.502;2023-02-28T01:16:41;19.20;;;9.13;;
23866;SDS011;12114;53.404;-1.502;2023-02-28T01:19:06;14.55;;;9.30;;
23866;SDS011;12114;53.404;-1.502;2023-02-28T01:21:32;10.10;;;7.50;;
23866;SDS011;12114;53.404;-1.502;2023-02-28T01:23:57;13.48;;;7.05;;
23866;SDS011;12114;53.404;-1.502;2023-02-28T01:26:22;8.98;;;7.00;;
23866;SDS011;12114;53.404;-1.502;2023-02-28T01:28:48;9.45;;;6.63;;
23866;SDS011;12114;53.404;-1.502;2023-02-28T01:31:14;13.18;;;6.97;;
23866;SDS011;12114;53.404;-1.502;2023-02-28T01:33:39;11.20;;;6.93;;
23866;SDS011;12114;53.404;-1.502;2023-02-28T01:36:05;8.88;;;5.28;;
23866;SDS011;12114;53.404;-1.502;2023-02-28T01:38:31;10.20;;;4.80;;
23866;SDS011;12114;53.404;-1.502;2023-02-28T01:40:57;8.02;;;5.05;;
23866;SDS011;12114;53.404;-1.502;2023-02-28T01:43:26;7.95;;;4.88;;
23866;SDS011;12114;53.404;-1.502;2023-02-28T01:45:52;6.80;;;4.50;;
23866;SDS011;12114;53.404;-1.502;2023-02-28T01:48:19;10.40;;;5.32;;
23866;SDS011;12114;53.404;-1.502;2023-02-28T01:50:45;5.15;;;3.83;;
23866;SDS011;12114;53.404;-1.502;2023-02-28T01:53:13;8.48;;;4.43;;
23866;SDS011;12114;53.404;-1.502;2023-02-28T01:55:39;8.73;;;4.40;;
23866;SDS011;12114;53.404;-1.502;2023-02-28T01:58:06;3.75;;;2.42;;
23866;SDS011;12114;53.404;-1.502;2023-02-28T02:00:32;5.85;;;2.83;;
23866;SDS011;12114;53.404;-1.502;2023-02-28T02:02:58;6.75;;;3.13;;
23866;SDS011;12114;53.404;-1.502;2023-02-28T02:05:25;6.75;;;3.15;;
23866;SDS011;12114;53.404;-1.502;2023-02-28T02:07:54;6.82;;;2.65;;
23866;SDS011;12114;53.404;-1.502;2023-02-28T02:10:21;5.43;;;2.80;;
23866;SDS011;12114;53.404;-1.502;2023-02-28T02:15:20;5.38;;;3.13;;
23866;SDS011;12114;53.404;-1.502;2023-02-28T02:17:50;8.13;;;5.32;;
23866;SDS011;12114;53.404;-1.502;2023-02-28T02:23:42;12.55;;;6.90;;
23866;SDS011;12114;53.404;-1.502;2023-02-28T02:25:43;11.75;;;8.18;;
23866;SDS011;12114;53.404;-1.502;2023-02-28T02:40:59;17.98;;;10.80;;
23866;SDS011;12114;53.404;-1.502;2023-02-28T02:43:29;19.90;;;12.27;;
23866;SDS011;12114;53.404;-1.502;2023-02-28T02:48:41;19.60;;;13.07;;
23866;SDS011;12114;53.404;-1.502;2023-02-28T02:51:11;17.70;;;11.50;;
23866;SDS011;12114;53.404;-1.502;2023-02-28T02:53:40;19.13;;;11.45;;
23866;SDS011;12114;53.404;-1.502;2023-02-28T02:56:06;19.30;;;11.85;;
23866;SDS011;12114;53.404;-1.502;2023-02-28T02:58:33;20.80;;;11.45;;
23866;SDS011;12114;53.404;-1.502;2023-02-28T03:01:01;14.98;;;10.10;;
23866;SDS011;12114;53.404;-1.502;2023-02-28T03:03:27;16.30;;;10.00;;
23866;SDS011;12114;53.404;-1.502;2023-02-28T03:05:55;11.90;;;9.00;;
23866;SDS011;12114;53.404;-1.502;2023-02-28T03:08:20;11.95;;;8.75;;
23866;SDS011;12114;53.404;-1.502;2023-02-28T03:10:48;13.40;;;8.57;;
23866;SDS011;12114;53.404;-1.502;2023-02-28T03:23:42;17.27;;;8.57;;
23866;SDS011;12114;53.404;-1.502;2023-02-28T03:26:20;12.95;;;8.40;;
23866;SDS011;12114;53.404;-1.502;2023-02-28T03:31:26;11.55;;;7.32;;
23866;SDS011;12114;53.404;-1.502;2023-02-28T03:33:55;12.50;;;7.95;;
23866;SDS011;12114;53.404;-1.502;2023-02-28T03:36:24;12.07;;;7.78;;
23866;SDS011;12114;53.404;-1.502;2023-02-28T03:38:59;14.05;;;8.05;;
23866;SDS011;12114;53.404;-1.502;2023-02-28T03:41:32;13.23;;;8.35;;
23866;SDS011;12114;53.404;-1.502;2023-02-28T03:44:00;11.77;;;7.10;;
23866;SDS011;12114;53.404;-1.502;2023-02-28T03:46:28;13.48;;;8.25;;
23866;SDS011;12114;53.404;-1.502;2023-02-28T03:49:04;9.65;;;7.13;;
23866;SDS011;12114;53.404;-1.502;2023-02-28T03:51:31;8.32;;;5.53;;
23866;SDS011;12114;53.404;-1.502;2023-02-28T03:53:58;12.38;;;7.00;;
23866;SDS011;12114;53.404;-1.502;2023-02-28T03:58:57;15.05;;;8.15;;
23866;SDS011;12114;53.404;-1.502;2023-02-28T04:01:36;17.23;;;10.52;;
23866;SDS011;12114;53.404;-1.502;2023-02-28T04:04:02;19.50;;;11.35;;
23866;SDS011;12114;53.404;-1.502;2023-02-28T04:06:29;20.40;;;12.98;;
23866;SDS011;12114;53.404;-1.502;2023-02-28T04:08:55;24.20;;;15.38;;
23866;SDS011;12114;53.404;-1.502;2023-02-28T04:11:25;25.50;;;15.73;;
23866;SDS011;12114;53.404;-1.502;2023-02-28T04:13:52;28.33;;;16.58;;
23866;SDS011;12114;53.404;-1.502;2023-02-28T04:16:18;31.80;;;19.20;;
23866;SDS011;12114;53.404;-1.502;2023-02-28T04:18:43;28.67;;;16.45;;
23866;SDS011;12114;53.404;-1.502;2023-02-28T04:21:09;24.75;;;14.27;;
23866;SDS011;12114;53.404;-1.502;2023-02-28T04:23:34;26.55;;;15.27;;
23866;SDS011;12114;53.404;-1.502;2023-02-28T04:26:00;22.05;;;13.10;;
23866;SDS011;12114;53.404;-1.502;2023-02-28T04:28:25;20.48;;;10.93;;
23866;SDS011;12114;53.404;-1.502;2023-02-28T04:30:57;20.00;;;11.07;;
23866;SDS011;12114;53.404;-1.502;2023-02-28T04:33:23;20.25;;;10.70;;
23866;SDS011;12114;53.404;-1.502;2023-02-28T04:35:48;18.02;;;10.27;;
23866;SDS011;12114;53.404;-1.502;2023-02-28T04:38:13;18.30;;;10.52;;
23866;SDS011;12114;53.404;-1.502;2023-02-28T04:40:38;20.77;;;11.07;;
23866;SDS011;12114;53.404;-1.502;2023-02-28T04:43:04;17.35;;;11.63;;
23866;SDS011;12114;53.404;-1.502;2023-02-28T04:45:29;19.33;;;12.13;;
23866;SDS011;12114;53.404;-1.502;2023-02-28T04:47:57;18.67;;;11.25;;
23866;SDS011;12114;53.404;-1.502;2023-02-28T04:50:22;17.60;;;11.20;;
23866;SDS011;12114;53.404;-1.502;2023-02-28T04:52:47;20.17;;;12.45;;
23866;SDS011;12114;53.404;-1.502;2023-02-28T04:55:13;20.88;;;12.82;;
23866;SDS011;12114;53.404;-1.502;2023-02-28T04:57:38;20.42;;;12.10;;
23866;SDS011;12114;53.404;-1.502;2023-02-28T05:00:03;20.90;;;12.15;;
23866;SDS011;12114;53.404;-1.502;2023-02-28T05:02:33;23.35;;;12.80;;
23866;SDS011;12114;53.404;-1.502;2023-02-28T05:04:59;21.85;;;11.82;;
23866;SDS011;12114;53.404;-1.502;2023-02-28T05:07:24;17.05;;;11.02;;
23866;SDS011;12114;53.404;-1.502;2023-02-28T05:09:49;19.67;;;10.68;;
23866;SDS011;12114;53.404;-1.502;2023-02-28T05:12:14;15.40;;;9.63;;
23866;SDS011;12114;53.404;-1.502;2023-02-28T05:14:40;17.33;;;8.40;;
23866;SDS011;12114;53.404;-1.502;2023-02-28T05:17:06;17.48;;;8.95;;
23866;SDS011;12114;53.404;-1.502;2023-02-28T05:19:31;14.98;;;8.68;;
23866;SDS011;12114;53.404;-1.502;2023-02-28T05:21:56;14.25;;;7.40;;
23866;SDS011;12114;53.404;-1.502;2023-02-28T05:24:22;14.63;;;8.10;;
23866;SDS011;12114;53.404;-1.502;2023-02-28T05:26:51;13.45;;;8.23;;
23866;SDS011;12114;53.404;-1.502;2023-02-28T05:29:17;15.45;;;8.75;;
23866;SDS011;12114;53.404;-1.502;2023-02-28T05:31:42;14.70;;;8.55;;
23866;SDS011;12114;53.404;-1.502;2023-02-28T05:34:08;18.63;;;9.10;;
23866;SDS011;12114;53.404;-1.502;2023-02-28T05:36:36;18.33;;;9.15;;
23866;SDS011;12114;53.404;-1.502;2023-02-28T05:39:01;17.73;;;8.45;;
23866;SDS011;12114;53.404;-1.502;2023-02-28T05:41:28;16.33;;;9.10;;
23866;SDS011;12114;53.404;-1.502;2023-02-28T05:43:53;17.75;;;9.52;;
23866;SDS011;12114;53.404;-1.502;2023-02-28T05:46:18;14.02;;;7.90;;
23866;SDS011;12114;53.404;-1.502;2023-02-28T05:48:45;14.35;;;7.13;;
23866;SDS011;12114;53.404;-1.502;2023-02-28T05:51:11;11.32;;;6.75;;
23866;SDS011;12114;53.404;-1.502;2023-02-28T05:53:36;9.93;;;5.80;;
23866;SDS011;12114;53.404;-1.502;2023-02-28T05:56:02;12.18;;;6.50;;
23866;SDS011;12114;53.404;-1.502;2023-02-28T05:58:27;14.07;;;6.90;;
23866;SDS011;12114;53.404;-1.502;2023-02-28T06:00:59;14.65;;;6.70;;
23866;SDS011;12114;53.404;-1.502;2023-02-28T06:03:24;10.85;;;6.72;;
23866;SDS011;12114;53.404;-1.502;2023-02-28T06:05:50;15.38;;;8.10;;
23866;SDS011;12114;53.404;-1.502;2023-02-28T06:08:15;17.92;;;9.10;;
23866;SDS011;12114;53.404;-1.502;2023-02-28T06:10:41;18.73;;;8.60;;
23866;SDS011;12114;53.404;-1.502;2023-02-28T06:13:06;19.25;;;9.68;;
23866;SDS011;12114;53.404;-1.502;2023-02-28T06:15:31;19.33;;;9.40;;
23866;SDS011;12114;53.404;-1.502;2023-02-28T06:17:57;15.75;;;7.88;;
23866;SDS011;12114;53.404;-1.502;2023-02-28T06:20:23;17.50;;;8.85;;
23866;SDS011;12114;53.404;-1.502;2023-02-28T06:22:48;15.63;;;8.80;;
23866;SDS011;12114;53.404;-1.502;2023-02-28T06:25:15;16.70;;;8.65;;
23866;SDS011;12114;53.404;-1.502;2023-02-28T06:27:41;16.25;;;8.02;;
23866;SDS011;12114;53.404;-1.502;2023-02-28T06:30:06;15.45;;;7.97;;
23866;SDS011;12114;53.404;-1.502;2023-02-28T06:32:32;19.42;;;9.65;;
23866;SDS011;12114;53.404;-1.502;2023-02-28T06:34:57;19.73;;;8.75;;
23866;SDS011;12114;53.404;-1.502;2023-02-28T06:37:23;17.63;;;8.60;;
23866;SDS011;12114;53.404;-1.502;2023-02-28T06:39:51;17.63;;;8.52;;
23866;SDS011;12114;53.404;-1.502;2023-02-28T06:42:16;17.42;;;9.00;;
23866;SDS011;12114;53.404;-1.502;2023-02-28T06:44:41;14.27;;;7.80;;
23866;SDS011;12114;53.404;-1.502;2023-02-28T06:47:08;15.15;;;7.93;;
23866;SDS011;12114;53.404;-1.502;2023-02-28T06:49:33;17.95;;;8.25;;
23866;SDS011;12114;53.404;-1.502;2023-02-28T06:51:59;13.63;;;7.40;;
23866;SDS011;12114;53.404;-1.502;2023-02-28T06:54:24;16.08;;;7.70;;
23866;SDS011;12114;53.404;-1.502;2023-02-28T06:56:49;15.98;;;7.97;;
23866;SDS011;12114;53.404;-1.502;2023-02-28T06:59:15;15.80;;;7.68;;
23866;SDS011;12114;53.404;-1.502;2023-02-28T07:01:40;14.25;;;7.53;;
23866;SDS011;12114;53.404;-1.502;2023-02-28T07:04:05;11.95;;;7.05;;
23866;SDS011;12114;53.404;-1.502;2023-02-28T07:06:31;8.93;;;6.68;;
23866;SDS011;12114;53.404;-1.502;2023-02-28T07:08:57;11.55;;;6.95;;
23866;SDS011;12114;53.404;-1.502;2023-02-28T07:11:23;11.02;;;6.03;;
23866;SDS011;12114;53.404;-1.502;2023-02-28T07:13:50;12.35;;;6.20;;
23866;SDS011;12114;53.404;-1.502;2023-02-28T07:16:16;12.63;;;6.88;;
23866;SDS011;12114;53.404;-1.502;2023-02-28T07:18:41;13.32;;;6.78;;
23866;SDS011;12114;53.404;-1.502;2023-02-28T07:21:07;11.48;;;6.72;;
23866;SDS011;12114;53.404;-1.502;2023-02-28T07:23:33;11.82;;;6.60;;
23866;SDS011;12114;53.404;-1.502;2023-02-28T07:25:58;12.43;;;7.30;;
23866;SDS011;12114;53.404;-1.502;2023-02-28T07:28:24;12.15;;;7.03;;
23866;SDS011;12114;53.404;-1.502;2023-02-28T07:30:49;13.32;;;6.60;;
23866;SDS011;12114;53.404;-1.502;2023-02-28T07:33:15;14.45;;;7.07;;
23866;SDS011;12114;53.404;-1.502;2023-02-28T07:35:40;13.00;;;6.43;;
23866;SDS011;12114;53.404;-1.502;2023-02-28T07:38:06;12.55;;;5.72;;
23866;SDS011;12114;53.404;-1.502;2023-02-28T07:40:32;10.27;;;5.57;;
23866;SDS011;12114;53.404;-1.502;2023-02-28T07:42:58;11.90;;;5.70;;
23866;SDS011;12114;53.404;-1.502;2023-02-28T07:45:24;10.02;;;5.03;;
23866;SDS011;12114;53.404;-1.502;2023-02-28T07:47:49;9.07;;;5.30;;
23866;SDS011;12114;53.404;-1.502;2023-02-28T07:50:14;11.73;;;5.20;;
23866;SDS011;12114;53.404;-1.502;2023-02-28T07:52:40;12.27;;;5.45;;
23866;SDS011;12114;53.404;-1.502;2023-02-28T07:55:06;9.63;;;5.50;;
23866;SDS011;12114;53.404;-1.502;2023-02-28T07:57:32;10.52;;;4.32;;
23866;SDS011;12114;53.404;-1.502;2023-02-28T07:59:57;12.85;;;5.20;;
23866;SDS011;12114;53.404;-1.502;2023-02-28T08:02:22;13.25;;;5.05;;
23866;SDS011;12114;53.404;-1.502;2023-02-28T08:04:48;11.07;;;4.90;;
23866;SDS011;12114;53.404;-1.502;2023-02-28T08:07:14;10.73;;;4.63;;
23866;SDS011;12114;53.404;-1.502;2023-02-28T08:09:40;13.07;;;4.80;;
23866;SDS011;12114;53.404;-1.502;2023-02-28T08:12:05;9.95;;;5.25;;
23866;SDS011;12114;53.404;-1.502;2023-02-28T08:14:31;11.48;;;4.55;;
23866;SDS011;12114;53.404;-1.502;2023-02-28T08:16:56;13.18;;;6.28;;
23866;SDS011;12114;53.404;-1.502;2023-02-28T08:19:21;10.63;;;6.32;;
23866;SDS011;12114;53.404;-1.502;2023-02-28T08:21:47;19.60;;;6.97;;
23866;SDS011;12114;53.404;-1.502;2023-02-28T08:24:12;11.13;;;6.38;;
23866;SDS011;12114;53.404;-1.502;2023-02-28T08:26:37;12.93;;;7.05;;
23866;SDS011;12114;53.404;-1.502;2023-02-28T08:29:02;10.90;;;6.95;;
23866;SDS011;12114;53.404;-1.502;2023-02-28T08:31:28;13.23;;;7.13;;
23866;SDS011;12114;53.404;-1.502;2023-02-28T08:33:53;12.90;;;6.88;;
23866;SDS011;12114;53.404;-1.502;2023-02-28T08:36:21;11.90;;;6.68;;
23866;SDS011;12114;53.404;-1.502;2023-02-28T08:38:47;13.82;;;6.72;;
23866;SDS011;12114;53.404;-1.502;2023-02-28T08:41:12;10.80;;;6.20;;
23866;SDS011;12114;53.404;-1.502;2023-02-28T08:43:38;10.38;;;5.35;;
23866;SDS011;12114;53.404;-1.502;2023-02-28T08:46:04;8.73;;;5.80;;
23866;SDS011;12114;53.404;-1.502;2023-02-28T08:48:30;10.77;;;5.05;;
23866;SDS011;12114;53.404;-1.502;2023-02-28T08:50:59;10.43;;;4.78;;
23866;SDS011;12114;53.404;-1.502;2023-02-28T08:53:25;9.32;;;4.05;;
23866;SDS011;12114;53.404;-1.502;2023-02-28T08:56:00;8.32;;;4.32;;
23866;SDS011;12114;53.404;-1.502;2023-02-28T09:03:16;12.60;;;3.63;;
23866;SDS011;12114;53.404;-1.502;2023-02-28T09:05:51;6.93;;;2.97;;
23866;SDS011;12114;53.404;-1.502;2023-02-28T09:08:16;10.00;;;3.83;;
23866;SDS011;12114;53.404;-1.502;2023-02-28T09:10:41;6.50;;;3.03;;
23866;SDS011;12114;53.404;-1.502;2023-02-28T09:13:06;5.22;;;3.05;;
23866;SDS011;12114;53.404;-1.502;2023-02-28T09:15:32;8.07;;;2.80;;
23866;SDS011;12114;53.404;-1.502;2023-02-28T09:17:57;5.00;;;2.55;;
23866;SDS011;12114;53.404;-1.502;2023-02-28T09:20:22;4.18;;;2.47;;
23866;SDS011;12114;53.404;-1.502;2023-02-28T09:22:48;4.25;;;2.70;;
23866;SDS011;12114;53.404;-1.502;2023-02-28T09:25:13;7.20;;;2.80;;
23866;SDS011;12114;53.404;-1.502;2023-02-28T09:27:38;7.45;;;3.05;;
23866;SDS011;12114;53.404;-1.502;2023-02-28T09:30:04;3.55;;;2.40;;
23866;SDS011;12114;53.404;-1.502;2023-02-28T09:32:29;6.40;;;2.40;;
23866;SDS011;12114;53.404;-1.502;2023-02-28T09:34:55;6.35;;;3.00;;
23866;SDS011;12114;53.404;-1.502;2023-02-28T09:37:20;4.97;;;2.72;;
23866;SDS011;12114;53.404;-1.502;2023-02-28T09:39:45;6.32;;;2.78;;
23866;SDS011;12114;53.404;-1.502;2023-02-28T09:42:13;5.90;;;3.33;;
23866;SDS011;12114;53.404;-1.502;2023-02-28T09:44:43;8.98;;;3.85;;
23866;SDS011;12114;53.404;-1.502;2023-02-28T09:47:21;6.05;;;2.92;;
23866;SDS011;12114;53.404;-1.502;2023-02-28T09:49:50;4.47;;;2.63;;
23866;SDS011;12114;53.404;-1.502;2023-02-28T09:52:21;6.45;;;2.90;;
23866;SDS011;12114;53.404;-1.502;2023-02-28T09:54:46;5.82;;;2.70;;
23866;SDS011;12114;53.404;-1.502;2023-02-28T10:05:04;7.50;;;3.40;;
23866;SDS011;12114;53.404;-1.502;2023-02-28T10:09:57;7.53;;;4.30;;
23866;SDS011;12114;53.404;-1.502;2023-02-28T10:12:24;7.40;;;3.40;;
23866;SDS011;12114;53.404;-1.502;2023-02-28T10:14:51;6.70;;;3.33;;
23866;SDS011;12114;53.404;-1.502;2023-02-28T10:17:21;6.05;;;2.90;;
23866;SDS011;12114;53.404;-1.502;2023-02-28T10:22:18;4.32;;;3.63;;
23866;SDS011;12114;53.404;-1.502;2023-02-28T10:24:46;7.40;;;3.13;;
23866;SDS011;12114;53.404;-1.502;2023-02-28T10:27:16;5.03;;;3.78;;
23866;SDS011;12114;53.404;-1.502;2023-02-28T10:29:43;6.63;;;2.85;;
23866;SDS011;12114;53.404;-1.502;2023-02-28T10:32:08;3.03;;;2.28;;
23866;SDS011;12114;53.404;-1.502;2023-02-28T10:34:35;3.47;;;1.73;;
23866;SDS011;12114;53.404;-1.502;2023-02-28T10:37:00;7.25;;;1.90;;
23866;SDS011;12114;53.404;-1.502;2023-02-28T10:42:03;4.22;;;1.80;;
23866;SDS011;12114;53.404;-1.502;2023-02-28T10:44:29;6.60;;;2.10;;
23866;SDS011;12114;53.404;-1.502;2023-02-28T10:46:54;4.35;;;2.65;;
23866;SDS011;12114;53.404;-1.502;2023-02-28T10:49:24;4.38;;;2.63;;
23866;SDS011;12114;53.404;-1.502;2023-02-28T10:51:57;3.55;;;2.75;;
23866;SDS011;12114;53.404;-1.502;2023-02-28T10:54:31;4.18;;;3.13;;
23866;SDS011;12114;53.404;-1.502;2023-02-28T10:57:07;3.95;;;3.13;;
23866;SDS011;12114;53.404;-1.502;2023-02-28T10:59:33;7.78;;;3.42;;
23866;SDS011;12114;53.404;-1.502;2023-02-28T11:01:58;5.78;;;2.70;;
23866;SDS011;12114;53.404;-1.502;2023-02-28T11:09:38;5.05;;;1.85;;
23866;SDS011;12114;53.404;-1.502;2023-02-28T11:12:06;2.38;;;1.40;;
23866;SDS011;12114;53.404;-1.502;2023-02-28T11:14:33;5.85;;;1.88;;
23866;SDS011;12114;53.404;-1.502;2023-02-28T11:17:11;3.65;;;1.60;;
23866;SDS011;12114;53.404;-1.502;2023-02-28T11:19:39;3.45;;;1.90;;
23866;SDS011;12114;53.404;-1.502;2023-02-28T11:22:05;4.45;;;1.80;;
23866;SDS011;12114;53.404;-1.502;2023-02-28T11:24:33;3.08;;;1.33;;
23866;SDS011;12114;53.404;-1.502;2023-02-28T11:26:59;5.82;;;1.42;;
23866;SDS011;12114;53.404;-1.502;2023-02-28T11:29:26;3.05;;;1.25;;
23866;SDS011;12114;53.404;-1.502;2023-02-28T11:34:27;3.50;;;1.13;;
23866;SDS011;12114;53.404;-1.502;2023-02-28T11:36:53;2.00;;;1.10;;
23866;SDS011;12114;53.404;-1.502;2023-02-28T11:39:19;5.60;;;1.50;;
23866;SDS011;12114;53.404;-1.502;2023-02-28T11:46:54;4.38;;;1.38;;
23866;SDS011;12114;53.404;-1.502;2023-02-28T11:52:21;2.53;;;1.25;;
23866;SDS011;12114;53.404;-1.502;2023-02-28T11:54:59;6.25;;;1.38;;
23866;SDS011;12114;53.404;-1.502;2023-02-28T11:57:38;1.45;;;1.30;;
23866;SDS011;12114;53.404;-1.502;2023-02-28T12:10:09;3.60;;;1.60;;
23866;SDS011;12114;53.404;-1.502;2023-02-28T12:15:21;3.53;;;1.38;;
23866;SDS011;12114;53.404;-1.502;2023-02-28T12:28:01;3.78;;;1.60;;
23866;SDS011;12114;53.404;-1.502;2023-02-28T12:30:33;2.60;;;1.40;;
23866;SDS011;12114;53.404;-1.502;2023-02-28T12:33:05;4.07;;;0.98;;
23866;SDS011;12114;53.404;-1.502;2023-02-28T12:35:33;4.43;;;1.73;;
23866;SDS011;12114;53.404;-1.502;2023-02-28T12:38:10;3.72;;;1.20;;
23866;SDS011;12114;53.404;-1.502;2023-02-28T12:40:42;6.72;;;1.73;;
23866;SDS011;12114;53.404;-1.502;2023-02-28T12:43:09;4.07;;;1.42;;
23866;SDS011;12114;53.404;-1.502;2023-02-28T12:48:05;3.30;;;1.55;;
23866;SDS011;12114;53.404;-1.502;2023-02-28T12:50:31;2.53;;;1.20;;
23866;SDS011;12114;53.404;-1.502;2023-02-28T13:09:25;2.30;;;1.60;;
23866;SDS011;12114;53.404;-1.502;2023-02-28T13:11:45;5.43;;;2.30;;
23866;SDS011;12114;53.404;-1.502;2023-02-28T13:14:19;3.30;;;1.92;;
23866;SDS011;12114;53.404;-1.502;2023-02-28T13:19:16;2.28;;;1.67;;
23866;SDS011;12114;53.404;-1.502;2023-02-28T13:21:43;2.20;;;1.67;;
23866;SDS011;12114;53.404;-1.502;2023-02-28T13:24:09;4.45;;;2.15;;
23866;SDS011;12114;53.404;-1.502;2023-02-28T13:29:01;4.00;;;2.10;;
23866;SDS011;12114;53.404;-1.502;2023-02-28T13:31:27;2.65;;;2.00;;
23866;SDS011;12114;53.404;-1.502;2023-02-28T13:36:28;3.38;;;2.30;;
23866;SDS011;12114;53.404;-1.502;2023-02-28T13:46:27;2.03;;;1.23;;
23866;SDS011;12114;53.404;-1.502;2023-02-28T13:48:52;3.78;;;1.30;;
23866;SDS011;12114;53.404;-1.502;2023-02-28T13:51:38;2.17;;;1.10;;
23866;SDS011;12114;53.404;-1.502;2023-02-28T13:54:50;1.20;;;0.90;;
23866;SDS011;12114;53.404;-1.502;2023-02-28T13:59:46;2.35;;;1.00;;
23866;SDS011;12114;53.404;-1.502;2023-02-28T14:02:23;1.47;;;0.93;;
23866;SDS011;12114;53.404;-1.502;2023-02-28T14:05:00;3.15;;;1.00;;
23866;SDS011;12114;53.404;-1.502;2023-02-28T14:07:28;3.70;;;1.52;;
23866;SDS011;12114;53.404;-1.502;2023-02-28T14:10:04;1.90;;;1.50;;
23866;SDS011;12114;53.404;-1.502;2023-02-28T14:18:05;5.03;;;1.60;;
23866;SDS011;12114;53.404;-1.502;2023-02-28T14:20:36;5.10;;;2.60;;
23866;SDS011;12114;53.404;-1.502;2023-02-28T14:23:08;7.25;;;2.88;;
23866;SDS011;12114;53.404;-1.502;2023-02-28T14:38:07;3.25;;;1.65;;
23866;SDS011;12114;53.404;-1.502;2023-02-28T14:40:39;3.47;;;1.50;;
23866;SDS011;12114;53.404;-1.502;2023-02-28T14:43:06;2.30;;;1.27;;
23866;SDS011;12114;53.404;-1.502;2023-02-28T14:45:35;4.15;;;1.48;;
23866;SDS011;12114;53.404;-1.502;2023-02-28T14:48:02;4.30;;;1.42;;
23866;SDS011;12114;53.404;-1.502;2023-02-28T14:50:30;1.83;;;1.15;;
23866;SDS011;12114;53.404;-1.502;2023-02-28T14:52:56;3.90;;;1.30;;
23866;SDS011;12114;53.404;-1.502;2023-02-28T14:55:24;4.95;;;1.23;;
23866;SDS011;12114;53.404;-1.502;2023-02-28T14:57:53;4.75;;;2.08;;
23866;SDS011;12114;53.404;-1.502;2023-02-28T15:02:44;9.07;;;5.10;;
23866;SDS011;12114;53.404;-1.502;2023-02-28T15:07:35;3.67;;;1.85;;
23866;SDS011;12114;53.404;-1.502;2023-02-28T15:12:41;5.13;;;1.60;;
23866;SDS011;12114;53.404;-1.502;2023-02-28T15:15:15;6.13;;;1.75;;
23866;SDS011;12114;53.404;-1.502;2023-02-28T15:17:40;4.97;;;1.50;;
23866;SDS011;12114;53.404;-1.502;2023-02-28T15:20:10;5.20;;;1.20;;
23866;SDS011;12114;53.404;-1.502;2023-02-28T15:22:36;3.45;;;1.30;;
23866;SDS011;12114;53.404;-1.502;2023-02-28T15:25:02;3.83;;;0.98;;
23866;SDS011;12114;53.404;-1.502;2023-02-28T15:27:31;4.25;;;1.77;;
23866;SDS011;12114;53.404;-1.502;2023-02-28T15:30:00;7.57;;;2.05;;
23866;SDS011;12114;53.404;-1.502;2023-02-28T15:34:55;5.80;;;2.45;;
23866;SDS011;12114;53.404;-1.502;2023-02-28T15:39:49;8.38;;;1.48;;
23866;SDS011;12114;53.404;-1.502;2023-02-28T15:42:18;5.70;;;0.95;;
23866;SDS011;12114;53.404;-1.502;2023-02-28T15:44:44;7.90;;;1.00;;
23866;SDS011;12114;53.404;-1.502;2023-02-28T15:47:17;2.17;;;0.80;;
23866;SDS011;12114;53.404;-1.502;2023-02-28T15:52:19;3.63;;;1.27;;
23866;SDS011;12114;53.404;-1.502;2023-02-28T15:54:45;4.38;;;1.73;;
23866;SDS011;12114;53.404;-1.502;2023-02-28T15:57:21;5.32;;;1.70;;
23866;SDS011;12114;53.404;-1.502;2023-02-28T15:59:56;2.60;;;1.42;;
23866;SDS011;12114;53.404;-1.502;2023-02-28T16:02:32;7.68;;;1.40;;
23866;SDS011;12114;53.404;-1.502;2023-02-28T16:07:23;4.38;;;1.60;;
23866;SDS011;12114;53.404;-1.502;2023-02-28T16:09:49;4.20;;;1.80;;
23866;SDS011;12114;53.404;-1.502;2023-02-28T16:12:14;3.22;;;1.48;;
23866;SDS011;12114;53.404;-1.502;2023-02-28T16:14:40;4.35;;;2.28;;
23866;SDS011;12114;53.404;-1.502;2023-02-28T16:17:17;4.60;;;1.80;;
23866;SDS011;12114;53.404;-1.502;2023-02-28T16:19:44;5.47;;;1.75;;
23866;SDS011;12114;53.404;-1.502;2023-02-28T16:22:09;1.77;;;1.33;;
23866;SDS011;12114;53.404;-1.502;2023-02-28T16:24:35;4.60;;;1.58;;
23866;SDS011;12114;53.404;-1.502;2023-02-28T16:27:00;3.88;;;1.67;;
23866;SDS011;12114;53.404;-1.502;2023-02-28T16:29:33;4.43;;;1.60;;
23866;SDS011;12114;53.404;-1.502;2023-02-28T16:31:59;2.42;;;1.50;;
23866;SDS011;12114;53.404;-1.502;2023-02-28T16:34:25;2.78;;;1.33;;
23866;SDS011;12114;53.404;-1.502;2023-02-28T16:36:50;2.88;;;1.40;;
23866;SDS011;12114;53.404;-1.502;2023-02-28T16:39:19;3.20;;;0.90;;
23866;SDS011;12114;53.404;-1.502;2023-02-28T16:41:48;4.35;;;1.20;;
23866;SDS011;12114;53.404;-1.502;2023-02-28T16:44:26;4.80;;;1.45;;
23866;SDS011;12114;53.404;-1.502;2023-02-28T16:46:52;2.25;;;1.50;;
23866;SDS011;12114;53.404;-1.502;2023-02-28T16:49:17;3.17;;;2.03;;
23866;SDS011;12114;53.404;-1.502;2023-02-28T16:51:43;4.90;;;2.30;;
23866;SDS011;12114;53.404;-1.502;2023-02-28T16:54:08;7.45;;;3.45;;
23866;SDS011;12114;53.404;-1.502;2023-02-28T16:56:33;4.13;;;3.17;;
23866;SDS011;12114;53.404;-1.502;2023-02-28T16:58:59;6.28;;;2.88;;
23866;SDS011;12114;53.404;-1.502;2023-02-28T17:01:25;4.60;;;2.10;;
23866;SDS011;12114;53.404;-1.502;2023-02-28T17:03:52;4.07;;;2.42;;
23866;SDS011;12114;53.404;-1.502;2023-02-28T17:06:19;5.80;;;2.05;;
23866;SDS011;12114;53.404;-1.502;2023-02-28T17:08:45;2.60;;;1.20;;
23866;SDS011;12114;53.404;-1.502;2023-02-28T17:11:11;3.47;;;1.50;;
23866;SDS011;12114;53.404;-1.502;2023-02-28T17:13:36;3.15;;;1.48;;